createdAt,value
2023-04-21T00:00:28.233Z,77.65
2023-04-21T00:03:00.112Z,77.80
2023-04-21T00:05:27.423Z,77.87
2023-04-21T00:07:54.425Z,77.85
2023-04-21T00:10:21.345Z,77.89
2023-04-21T00:12:50.405Z,77.66
2023-04-21T00:15:21.939Z,77.65
2023-04-21T00:17:51.063Z,77.55
2023-04-21T00:20:27.127Z,77.64
2023-04-21T00:22:57.540Z,77.68
2023-04-21T00:25:27.636Z,77.80
2023-04-21T00:27:54.743Z,77.58
2023-04-21T00:30:26.511Z,77.73
2023-04-21T00:32:57.758Z,77.76
2023-04-21T00:35:24.687Z,77.66
2023-04-21T00:37:51.581Z,77.89
2023-04-21T00:40:20.934Z,77.91
2023-04-21T00:42:50.537Z,77.63
2023-04-21T00:45:17.571Z,78.20
2023-04-21T00:47:44.604Z,78.22
2023-04-21T00:50:12.451Z,78.10
2023-04-21T00:52:44.153Z,78.17
2023-04-21T00:55:11.336Z,78.15
2023-04-21T00:57:38.257Z,78.20
2023-04-21T01:00:12.088Z,77.96
2023-04-21T01:02:40.545Z,78.20
2023-04-21T01:05:11.565Z,78.26
2023-04-21T01:07:38.887Z,78.60
2023-04-21T01:10:06.498Z,78.61
2023-04-21T01:12:33.321Z,78.66
2023-04-21T01:15:04.996Z,78.67
2023-04-21T01:17:38.673Z,78.67
2023-04-21T01:20:12.046Z,78.64
2023-04-21T01:22:40.192Z,78.43
2023-04-21T01:25:12.160Z,78.46
2023-04-21T01:27:39.072Z,78.98
2023-04-21T01:30:10.625Z,78.78
2023-04-21T01:32:42.181Z,78.54
2023-04-21T01:35:09.706Z,78.57
2023-04-21T01:37:38.340Z,78.67
2023-04-21T01:40:09.643Z,78.41
2023-04-21T01:42:45.225Z,78.18
2023-04-21T01:45:15.263Z,78.11
2023-04-21T01:47:49.848Z,78.45
2023-04-21T01:50:18.840Z,78.25
2023-04-21T01:52:47.949Z,78.14
2023-04-21T01:55:15.363Z,78.50
2023-04-21T01:57:46.856Z,78.38
2023-04-21T02:00:14.822Z,78.19
2023-04-21T02:02:45.122Z,78.50
2023-04-21T02:05:14.162Z,78.56
2023-04-21T02:07:43.254Z,78.94
2023-04-21T02:10:15.377Z,79.02
2023-04-21T02:12:49.963Z,79.00
2023-04-21T02:15:19.110Z,79.14
2023-04-21T02:17:46.907Z,78.97
2023-04-21T02:20:18.677Z,78.82
2023-04-21T02:22:46.509Z,79.06
2023-04-21T02:25:15.663Z,79.00
2023-04-21T02:27:42.450Z,78.88
2023-04-21T02:30:11.721Z,78.63
2023-04-21T02:32:38.721Z,78.74
2023-04-21T02:35:07.936Z,78.64
2023-04-21T02:37:35.006Z,78.77
2023-04-21T02:40:06.774Z,78.70
2023-04-21T02:42:35.874Z,78.85
2023-04-21T02:45:03.047Z,78.68
2023-04-21T02:47:30.004Z,79.09
2023-04-21T02:49:57.362Z,79.13
2023-04-21T02:52:24.994Z,79.08
2023-04-21T02:54:54.258Z,79.25
2023-04-21T02:57:21.093Z,79.21
2023-04-21T02:59:50.097Z,79.38
2023-04-21T03:02:19.410Z,78.98
2023-04-21T03:04:48.954Z,79.24
2023-04-21T03:07:15.719Z,79.22
2023-04-21T03:09:44.730Z,79.10
2023-04-21T03:12:14.546Z,78.95
2023-04-21T03:14:41.262Z,78.73
2023-04-21T03:17:08.079Z,78.88
2023-04-21T03:19:37.222Z,78.72
2023-04-21T03:22:04.341Z,79.17
2023-04-21T03:24:31.388Z,79.11
2023-04-21T03:27:00.489Z,79.27
2023-04-21T03:29:32.241Z,79.51
2023-04-21T03:32:03.852Z,79.68
2023-04-21T03:34:33.350Z,79.73
2023-04-21T03:37:06.413Z,79.62
2023-04-21T03:39:33.261Z,79.82
2023-04-21T03:42:05.117Z,79.59
2023-04-21T03:44:31.967Z,79.74
2023-04-21T03:47:03.490Z,79.81
2023-04-21T03:49:33.778Z,80.09
2023-04-21T03:52:02.846Z,80.05
2023-04-21T03:54:32.159Z,80.00
2023-04-21T03:57:01.192Z,80.08
2023-04-21T03:59:33.979Z,79.96
2023-04-21T04:02:06.442Z,79.97
2023-04-21T04:04:36.835Z,79.95
2023-04-21T04:07:07.668Z,79.96
2023-04-21T04:09:40.114Z,80.18
2023-04-21T04:12:06.945Z,80.13
2023-04-21T04:14:35.988Z,80.04
2023-04-21T04:17:02.782Z,79.82
2023-04-21T04:19:35.132Z,79.84
2023-04-21T04:22:02.070Z,80.01
2023-04-21T04:24:35.969Z,79.81
2023-04-21T04:27:05.824Z,79.91
2023-04-21T04:29:32.651Z,79.89
2023-04-21T04:32:06.909Z,79.84
2023-04-21T04:34:39.170Z,79.93
2023-04-21T04:37:11.415Z,79.74
2023-04-21T04:39:40.730Z,79.98
2023-04-21T04:42:09.680Z,79.99
2023-04-21T04:44:38.899Z,79.96
2023-04-21T04:47:10.672Z,80.02
2023-04-21T04:49:37.680Z,79.85
2023-04-21T04:52:07.269Z,80.03
2023-04-21T04:54:36.589Z,80.08
2023-04-21T04:57:05.939Z,79.85
2023-04-21T04:59:36.824Z,79.76
2023-04-21T05:02:06.068Z,80.14
2023-04-21T05:04:36.643Z,80.42
2023-04-21T05:07:07.731Z,80.27
2023-04-21T05:09:35.006Z,79.98
2023-04-21T05:12:01.933Z,80.29
2023-04-21T05:14:31.503Z,80.16
2023-04-21T05:17:00.875Z,80.21
2023-04-21T05:19:30.101Z,80.16
2023-04-21T05:22:07.292Z,80.03
2023-04-21T05:24:36.835Z,80.13
2023-04-21T05:27:03.753Z,79.81
2023-04-21T05:29:31.228Z,79.67
2023-04-21T05:32:00.624Z,79.64
2023-04-21T05:34:27.450Z,79.61
2023-04-21T05:37:01.328Z,79.48
2023-04-21T05:39:28.713Z,79.49
2023-04-21T05:42:00.773Z,79.45
2023-04-21T05:44:27.790Z,79.18
2023-04-21T05:46:54.707Z,79.34
2023-04-21T05:49:23.952Z,79.13
2023-04-21T05:51:55.266Z,79.21
2023-04-21T05:54:24.679Z,79.48
2023-04-21T05:56:57.175Z,79.44
2023-04-21T05:59:26.713Z,79.63
2023-04-21T06:01:53.485Z,79.65
2023-04-21T06:04:25.220Z,79.71
2023-04-21T06:06:52.270Z,80.05
2023-04-21T06:09:19.002Z,80.14
2023-04-21T06:11:51.053Z,80.19
2023-04-21T06:14:22.634Z,80.13
2023-04-21T06:16:51.892Z,79.64
2023-04-21T06:19:21.113Z,79.73
2023-04-21T06:21:50.919Z,80.01
2023-04-21T06:24:25.585Z,80.03
2023-04-21T06:26:53.449Z,79.88
2023-04-21T06:29:22.554Z,79.63
2023-04-21T06:31:51.735Z,79.39
2023-04-21T06:34:21.810Z,79.26
2023-04-21T06:36:53.625Z,78.68
2023-04-21T06:39:22.778Z,78.43
2023-04-21T06:41:49.593Z,78.33
2023-04-21T06:44:22.118Z,78.30
2023-04-21T06:46:51.435Z,78.55
2023-04-21T06:49:20.688Z,78.39
2023-04-21T06:51:49.887Z,77.64
2023-04-21T06:54:19.156Z,78.03
2023-04-21T06:56:48.457Z,77.95
2023-04-21T06:59:15.254Z,77.67
2023-04-21T07:01:44.622Z,77.29
2023-04-21T07:04:11.431Z,77.42
2023-04-21T07:06:41.305Z,77.45
2023-04-21T07:09:15.440Z,77.03
2023-04-21T07:11:42.250Z,77.38
2023-04-21T07:14:09.061Z,77.00
2023-04-21T07:16:40.586Z,77.01
2023-04-21T07:19:12.061Z,77.26
2023-04-21T07:21:38.798Z,77.25
2023-04-21T07:24:11.447Z,76.64
2023-04-21T07:26:38.246Z,76.14
2023-04-21T07:29:05.027Z,76.39
2023-04-21T07:31:38.513Z,76.33
2023-04-21T07:34:07.591Z,75.88
2023-04-21T07:36:38.325Z,75.47
2023-04-21T07:39:10.090Z,75.23
2023-04-21T07:41:41.640Z,75.09
2023-04-21T07:44:13.191Z,75.10
2023-04-21T07:46:40.162Z,74.83
2023-04-21T07:49:11.817Z,74.94
2023-04-21T07:51:45.754Z,74.39
2023-04-21T07:54:12.539Z,74.28
2023-04-21T07:56:41.714Z,74.50
2023-04-21T07:59:08.508Z,74.17
2023-04-21T08:01:39.765Z,74.12
2023-04-21T08:04:09.530Z,74.07
2023-04-21T08:06:41.136Z,73.79
2023-04-21T08:09:07.999Z,73.77
2023-04-21T08:11:37.058Z,74.06
2023-04-21T08:14:07.171Z,73.60
2023-04-21T08:16:34.031Z,73.62
2023-04-21T08:19:04.358Z,73.77
2023-04-21T08:21:33.630Z,73.58
2023-04-21T08:24:08.343Z,73.49
2023-04-21T08:26:37.950Z,73.20
2023-04-21T08:29:10.270Z,72.85
2023-04-21T08:31:37.110Z,72.76
2023-04-21T08:34:03.985Z,72.78
2023-04-21T08:36:32.145Z,72.64
2023-04-21T08:39:01.740Z,72.80
2023-04-21T08:41:30.973Z,72.24
2023-04-21T08:43:57.854Z,72.57
2023-04-21T08:46:25.048Z,72.11
2023-04-21T08:48:55.355Z,71.72
2023-04-21T08:51:30.896Z,70.97
2023-04-21T08:53:59.932Z,71.43
2023-04-21T08:56:32.329Z,71.46
2023-04-21T08:59:01.291Z,71.87
2023-04-21T09:01:32.777Z,71.93
2023-04-21T09:04:17.253Z,71.99
2023-04-21T09:06:48.771Z,72.20
2023-04-21T09:09:17.951Z,72.61
2023-04-21T09:11:47.100Z,73.05
2023-04-21T09:14:13.974Z,72.98
2023-04-21T09:16:43.545Z,72.25
2023-04-21T09:19:21.575Z,71.15
2023-04-21T09:21:52.958Z,70.70
2023-04-21T09:24:25.230Z,70.74
2023-04-21T09:26:53.426Z,70.68
2023-04-21T09:29:24.239Z,70.78
2023-04-21T09:31:58.200Z,70.15
2023-04-21T09:34:35.646Z,70.51
2023-04-21T09:37:10.398Z,70.69
2023-04-21T09:40:03.437Z,70.65
2023-04-21T09:42:40.139Z,70.37
2023-04-21T09:47:50.894Z,70.54
2023-04-21T09:50:54.422Z,70.01
2023-04-21T09:53:16.997Z,70.46
2023-04-21T09:55:48.196Z,70.10
2023-04-21T09:58:19.874Z,69.92
2023-04-21T10:00:49.681Z,70.69
2023-04-21T10:03:30.165Z,70.58
2023-04-21T10:06:02.973Z,69.78
2023-04-21T10:08:35.887Z,70.04
2023-04-21T10:11:06.679Z,69.54
2023-04-21T10:13:34.168Z,69.40
2023-04-21T10:16:12.344Z,69.05
2023-04-21T10:18:43.806Z,68.38
2023-04-21T10:21:14.241Z,68.73
2023-04-21T10:23:44.221Z,69.31
2023-04-21T10:26:15.605Z,69.06
2023-04-21T10:28:49.163Z,68.95
2023-04-21T10:31:21.886Z,68.95
2023-04-21T10:34:07.742Z,68.39
2023-04-21T10:36:55.449Z,68.50
2023-04-21T10:39:36.535Z,68.81
2023-04-21T10:42:16.174Z,69.06
2023-04-21T10:44:57.935Z,68.71
2023-04-21T10:47:51.734Z,68.25
2023-04-21T10:50:28.822Z,67.56
2023-04-21T10:53:12.302Z,67.44
2023-04-21T10:55:44.456Z,67.31
2023-04-21T10:58:18.205Z,100.00
2023-04-21T11:00:47.885Z,100.00
2023-04-21T11:03:15.182Z,100.00
2023-04-21T11:05:42.405Z,100.00
2023-04-21T11:08:14.913Z,100.00
2023-04-21T11:10:48.020Z,100.00
2023-04-21T11:13:14.956Z,100.00
2023-04-21T11:16:00.214Z,67.31
2023-04-21T11:18:55.608Z,63.46
2023-04-21T11:21:31.792Z,64.23
2023-04-21T11:24:03.357Z,64.77
2023-04-21T11:26:38.564Z,64.56
2023-04-21T11:29:09.442Z,64.21
2023-04-21T11:31:43.172Z,63.54
2023-04-21T11:34:19.339Z,63.57
2023-04-21T11:36:51.554Z,63.09
2023-04-21T11:39:24.225Z,62.78
2023-04-21T11:41:53.726Z,62.28
2023-04-21T11:44:42.070Z,60.77
2023-04-21T11:47:18.559Z,60.92
2023-04-21T11:49:52.482Z,60.58
2023-04-21T11:52:35.734Z,60.14
2023-04-21T11:55:06.064Z,59.94
2023-04-21T11:57:39.752Z,59.87
2023-04-21T12:00:14.214Z,59.71
2023-04-21T12:02:41.369Z,60.40
2023-04-21T12:05:16.341Z,60.53
2023-04-21T12:07:52.396Z,60.42
2023-04-21T12:10:22.111Z,59.46
2023-04-21T12:12:53.670Z,59.73
2023-04-21T12:15:26.150Z,59.28
2023-04-21T12:18:00.511Z,57.98
2023-04-21T12:20:32.680Z,58.64
2023-04-21T12:23:01.841Z,57.97
2023-04-21T12:25:33.561Z,57.49
2023-04-21T12:28:02.645Z,57.32
2023-04-21T12:30:33.663Z,56.75
2023-04-21T12:33:04.587Z,56.90
2023-04-21T12:35:40.897Z,56.86
2023-04-21T12:38:14.806Z,55.77
2023-04-21T12:40:44.637Z,55.65
2023-04-21T12:43:16.715Z,54.25
2023-04-21T12:45:49.173Z,54.54
2023-04-21T12:48:21.020Z,53.26
2023-04-21T12:50:52.368Z,53.87
2023-04-21T12:53:21.770Z,54.01
2023-04-21T12:56:04.155Z,54.06
2023-04-21T12:58:36.832Z,54.63
2023-04-21T13:01:12.412Z,54.77
2023-04-21T13:03:42.729Z,54.57
2023-04-21T13:06:10.913Z,53.18
2023-04-21T13:08:39.870Z,53.93
2023-04-21T13:11:09.809Z,53.73
2023-04-21T13:13:42.514Z,53.56
2023-04-21T13:16:11.950Z,54.79
2023-04-21T13:18:39.429Z,54.44
2023-04-21T13:21:06.621Z,53.35
2023-04-21T13:23:33.702Z,53.92
2023-04-21T13:26:02.929Z,52.62
2023-04-21T13:28:32.553Z,53.00
2023-04-21T13:30:59.902Z,53.33
2023-04-21T13:33:27.026Z,52.62
2023-04-21T13:35:56.450Z,51.19
2023-04-21T13:38:25.738Z,51.85
2023-04-21T13:40:55.160Z,51.44
2023-04-21T13:43:22.203Z,51.06
2023-04-21T13:45:52.265Z,52.17
2023-04-21T13:48:23.873Z,51.99
2023-04-21T13:50:51.787Z,51.69
2023-04-21T13:53:25.674Z,51.99
2023-04-21T13:55:57.768Z,51.62
2023-04-21T13:58:26.972Z,52.21
2023-04-21T14:00:56.922Z,50.69
2023-04-21T14:03:23.927Z,50.69
2023-04-21T14:05:53.424Z,50.50
2023-04-21T14:08:25.028Z,50.96
2023-04-21T14:10:54.851Z,50.50
2023-04-21T14:16:07.978Z,49.75
2023-04-21T14:18:44.587Z,49.71
2023-04-21T14:21:15.951Z,49.22
2023-04-21T14:23:47.548Z,49.42
2023-04-21T14:26:19.314Z,49.38
2023-04-21T14:28:46.136Z,50.17
2023-04-21T14:31:15.239Z,49.94
2023-04-21T14:33:47.319Z,49.08
2023-04-21T14:36:14.235Z,49.07
2023-04-21T14:38:43.387Z,48.66
2023-04-21T14:41:14.917Z,48.15
2023-04-21T14:43:44.172Z,47.82
2023-04-21T14:46:13.533Z,47.68
2023-04-21T14:48:43.426Z,48.21
2023-04-21T14:51:15.001Z,48.38
2023-04-21T14:53:44.247Z,47.45
2023-04-21T14:56:13.626Z,47.61
2023-04-21T14:58:45.341Z,47.26
2023-04-21T15:01:12.860Z,47.93
2023-04-21T15:03:42.491Z,47.89
2023-04-21T15:06:09.980Z,47.40
2023-04-21T15:08:41.795Z,47.73
2023-04-21T15:11:15.504Z,47.48
2023-04-21T15:13:44.563Z,47.66
2023-04-21T15:16:11.538Z,47.40
2023-04-21T15:18:38.415Z,47.53
2023-04-21T15:21:07.758Z,47.36
2023-04-21T15:23:35.996Z,46.13
2023-04-21T15:26:05.183Z,46.23
2023-04-21T15:28:37.130Z,46.01
2023-04-21T15:31:09.775Z,45.88
2023-04-21T15:33:39.197Z,46.46
2023-04-21T15:36:08.483Z,46.09
2023-04-21T15:38:45.155Z,45.84
2023-04-21T15:41:19.401Z,46.37
2023-04-21T15:43:48.681Z,45.55
2023-04-21T15:46:15.632Z,46.07
2023-04-21T15:48:43.341Z,46.24
2023-04-21T15:51:13.289Z,46.81
2023-04-21T15:53:47.416Z,46.94
2023-04-21T15:56:17.879Z,47.39
2023-04-21T15:58:47.276Z,47.25
2023-04-21T16:01:16.361Z,47.62
2023-04-21T16:03:50.571Z,46.90
2023-04-21T16:06:17.659Z,46.89
2023-04-21T16:08:46.892Z,46.29
2023-04-21T16:11:18.521Z,45.45
2023-04-21T16:13:52.026Z,45.62
2023-04-21T16:16:21.657Z,45.71
2023-04-21T16:18:48.479Z,44.96
2023-04-21T16:21:20.161Z,45.49
2023-04-21T16:23:51.834Z,46.02
2023-04-21T16:26:18.728Z,46.55
2023-04-21T16:28:54.331Z,46.51
2023-04-21T16:31:23.748Z,46.53
2023-04-21T16:34:00.098Z,47.05
2023-04-21T16:36:33.182Z,46.17
2023-04-21T16:39:00.367Z,47.81
2023-04-21T16:41:33.038Z,47.34
2023-04-21T16:44:02.927Z,47.60
2023-04-21T16:46:44.438Z,47.07
2023-04-21T16:49:16.342Z,47.48
2023-04-21T16:51:47.815Z,47.43
2023-04-21T16:54:21.835Z,47.67
2023-04-21T16:56:51.267Z,47.10
2023-04-21T16:59:26.344Z,46.79
2023-04-21T17:02:11.810Z,46.79
2023-04-21T17:04:44.101Z,47.18
2023-04-21T17:07:13.610Z,47.52
2023-04-21T17:09:45.229Z,47.41
2023-04-21T17:12:14.322Z,47.37
2023-04-21T17:14:41.187Z,48.25
2023-04-21T17:17:22.111Z,48.74
2023-04-21T17:19:57.693Z,48.59
2023-04-21T17:22:24.504Z,48.83
2023-04-21T17:24:57.072Z,49.04
2023-04-21T17:27:28.993Z,49.17
2023-04-21T17:29:55.866Z,49.25
2023-04-21T17:32:32.711Z,49.21
2023-04-21T17:35:05.954Z,49.16
2023-04-21T17:37:37.529Z,49.74
2023-04-21T17:40:09.770Z,49.87
2023-04-21T17:42:41.922Z,50.48
2023-04-21T17:45:09.040Z,50.14
2023-04-21T17:47:38.372Z,50.40
2023-04-21T17:50:12.897Z,50.76
2023-04-21T17:52:42.708Z,50.30
2023-04-21T17:55:13.407Z,51.21
2023-04-21T17:57:40.284Z,51.45
2023-04-21T18:00:13.666Z,51.32
2023-04-21T18:02:45.417Z,51.79
2023-04-21T18:05:17.313Z,51.71
2023-04-21T18:07:46.801Z,51.94
2023-04-21T18:10:18.560Z,52.37
2023-04-21T18:12:52.711Z,52.44
2023-04-21T18:15:22.591Z,53.10
2023-04-21T18:17:49.573Z,52.72
2023-04-21T18:20:18.592Z,53.34
2023-04-21T18:22:51.940Z,53.77
2023-04-21T18:25:40.617Z,53.80
2023-04-21T18:28:08.617Z,53.88
2023-04-21T18:30:35.473Z,54.18
2023-04-21T18:33:05.924Z,54.06
2023-04-21T18:35:40.244Z,54.21
2023-04-21T18:38:11.967Z,54.61
2023-04-21T18:40:40.729Z,54.64
2023-04-21T18:43:10.907Z,55.19
2023-04-21T18:45:40.569Z,55.30
2023-04-21T18:48:09.934Z,55.35
2023-04-21T18:50:40.894Z,55.68
2023-04-21T18:53:10.808Z,55.83
2023-04-21T18:55:42.836Z,56.10
2023-04-21T18:58:09.670Z,56.54
2023-04-21T19:00:41.426Z,56.65
2023-04-21T19:03:08.957Z,56.95
2023-04-21T19:05:40.735Z,57.11
2023-04-21T19:08:12.128Z,57.30
2023-04-21T19:10:44.028Z,57.51
2023-04-21T19:13:13.510Z,57.53
2023-04-21T19:15:40.570Z,57.54
2023-04-21T19:18:09.540Z,57.76
2023-04-21T19:20:41.580Z,57.90
2023-04-21T19:23:13.267Z,58.12
2023-04-21T19:25:43.320Z,58.41
2023-04-21T19:28:14.978Z,58.75
2023-04-21T19:30:49.126Z,58.60
2023-04-21T19:33:20.702Z,59.78
2023-04-21T19:35:47.618Z,60.24
2023-04-21T19:38:21.349Z,60.33
2023-04-21T19:40:52.890Z,60.12
2023-04-21T19:43:21.110Z,59.71
2023-04-21T19:45:48.666Z,59.25
2023-04-21T19:48:18.280Z,58.27
2023-04-21T19:50:47.569Z,57.49
2023-04-21T19:53:16.616Z,56.76
2023-04-21T19:55:49.293Z,55.89
2023-04-21T19:58:32.624Z,55.94
2023-04-21T20:01:08.403Z,55.56
2023-04-21T20:03:37.837Z,55.05
2023-04-21T20:06:07.770Z,54.82
2023-04-21T20:08:36.919Z,54.30
2023-04-21T20:11:08.732Z,53.99
2023-04-21T20:13:40.075Z,53.87
2023-04-21T20:16:06.987Z,53.85
2023-04-21T20:18:33.956Z,54.04
2023-04-21T20:21:03.044Z,53.92
2023-04-21T20:23:32.319Z,53.81
2023-04-21T20:25:59.168Z,53.82
2023-04-21T20:28:28.253Z,54.05
2023-04-21T20:30:57.420Z,53.97
2023-04-21T20:33:26.480Z,54.17
2023-04-21T20:36:02.747Z,53.54
2023-04-21T20:38:38.599Z,53.80
2023-04-21T20:41:12.984Z,54.58
2023-04-21T20:43:42.025Z,54.70
2023-04-21T20:46:11.845Z,54.60
2023-04-21T20:48:43.467Z,55.01
2023-04-21T20:51:13.718Z,55.20
2023-04-21T20:53:40.668Z,55.25
2023-04-21T20:56:14.305Z,55.58
2023-04-21T20:58:43.614Z,55.59
2023-04-21T21:01:15.285Z,56.04
2023-04-21T21:03:44.420Z,55.56
2023-04-21T21:06:14.750Z,55.92
2023-04-21T21:08:48.560Z,56.50
2023-04-21T21:11:15.436Z,56.40
2023-04-21T21:13:45.634Z,56.63
2023-04-21T21:16:17.270Z,57.02
2023-04-21T21:18:49.611Z,57.12
2023-04-21T21:21:21.262Z,56.95
2023-04-21T21:23:50.153Z,56.98
2023-04-21T21:26:22.195Z,57.12
2023-04-21T21:28:56.087Z,57.59
2023-04-21T21:31:26.158Z,57.93
2023-04-21T21:33:55.627Z,57.76
2023-04-21T21:36:24.702Z,58.12
2023-04-21T21:38:56.973Z,58.22
2023-04-21T21:41:28.996Z,58.25
2023-04-21T21:43:58.695Z,58.53
2023-04-21T21:46:31.567Z,58.92
2023-04-21T21:49:03.197Z,58.95
2023-04-21T21:51:32.611Z,59.23
2023-04-21T21:54:01.866Z,59.35
2023-04-21T21:56:28.821Z,59.66
2023-04-21T21:58:58.095Z,59.64
2023-04-21T22:01:25.057Z,59.90
2023-04-21T22:03:53.251Z,60.14
2023-04-21T22:06:26.916Z,59.88
2023-04-21T22:08:56.268Z,60.28
2023-04-21T22:11:23.249Z,60.20
2023-04-21T22:13:54.556Z,60.66
2023-04-21T22:16:21.371Z,60.78
2023-04-21T22:18:48.625Z,60.82
2023-04-21T22:21:15.845Z,61.01
2023-04-21T22:23:42.720Z,61.16
2023-04-21T22:26:14.146Z,61.24
2023-04-21T22:28:41.979Z,61.78
2023-04-21T22:31:13.914Z,62.33
2023-04-21T22:33:41.497Z,62.54
2023-04-21T22:36:10.660Z,62.56
2023-04-21T22:38:43.711Z,62.35
2023-04-21T22:41:14.035Z,62.88
2023-04-21T22:43:45.875Z,63.19
2023-04-21T22:46:12.855Z,63.13
2023-04-21T22:48:39.897Z,62.96
2023-04-21T22:51:08.987Z,63.56
2023-04-21T22:53:40.902Z,63.45
2023-04-21T22:56:10.311Z,63.07
2023-04-21T22:58:37.211Z,63.13
2023-04-21T23:01:06.378Z,62.95
2023-04-21T23:03:33.417Z,62.96
2023-04-21T23:06:00.380Z,63.11
2023-04-21T23:08:28.145Z,63.07
2023-04-21T23:10:57.409Z,63.01
2023-04-21T23:13:29.251Z,62.99
2023-04-21T23:15:59.280Z,63.33
2023-04-21T23:18:26.915Z,63.63
2023-04-21T23:20:58.510Z,64.02
2023-04-21T23:23:33.119Z,64.17
2023-04-21T23:26:02.678Z,64.37
2023-04-21T23:28:32.455Z,65.11
2023-04-21T23:31:02.272Z,65.39
2023-04-21T23:33:33.465Z,65.90
2023-04-21T23:36:00.561Z,65.62
2023-04-21T23:38:30.351Z,65.45
2023-04-21T23:40:57.259Z,65.70
2023-04-21T23:43:24.061Z,65.63
2023-04-21T23:45:50.908Z,65.77
2023-04-21T23:48:20.136Z,65.90
2023-04-21T23:50:51.771Z,65.87
2023-04-21T23:53:21.108Z,65.85
2023-04-21T23:55:50.444Z,66.30
2023-04-21T23:58:17.203Z,66.15
